sensor_id;sensor_type;location;lat;lon;timestamp;pressure;altitude;pressure_sealevel;temperature;humidity
71165;BME280;58859;55.132;-1.586;2023-10-31T00:00:43;99573.59;;;18.39;100.00
71165;BME280;58859;55.132;-1.586;2023-10-31T00:03:08;99574.75;;;19.19;100.00
71165;BME280;58859;55.132;-1.586;2023-10-31T00:05:35;99570.97;;;17.98;100.00
71165;BME280;58859;55.132;-1.586;2023-10-31T00:08:01;99578.63;;;18.70;100.00
71165;BME280;58859;55.132;-1.586;2023-10-31T00:10:26;99577.63;;;18.83;100.00
71165;BME280;58859;55.132;-1.586;2023-10-31T00:12:51;99590.03;;;17.20;100.00
71165;BME280;58859;55.132;-1.586;2023-10-31T00:15:17;99577.84;;;18.58;100.00
71165;BME280;58859;55.132;-1.586;2023-10-31T00:17:42;99585.19;;;17.60;100.00
71165;BME280;58859;55.132;-1.586;2023-10-31T00:20:08;99581.06;;;17.83;100.00
71165;BME280;58859;55.132;-1.586;2023-10-31T00:22:33;99580.50;;;17.01;100.00
71165;BME280;58859;55.132;-1.586;2023-10-31T00:24:59;99583.94;;;18.11;100.00
71165;BME280;58859;55.132;-1.586;2023-10-31T00:27:24;99577.53;;;17.34;100.00
71165;BME280;58859;55.132;-1.586;2023-10-31T00:29:50;99590.38;;;17.67;100.00
71165;BME280;58859;55.132;-1.586;2023-10-31T00:32:15;99585.47;;;17.09;100.00
71165;BME280;58859;55.132;-1.586;2023-10-31T00:34:40;99586.13;;;17.66;100.00
71165;BME280;58859;55.132;-1.586;2023-10-31T00:37:06;99587.94;;;18.02;100.00
71165;BME280;58859;55.132;-1.586;2023-10-31T00:39:31;99576.72;;;17.58;100.00
71165;BME280;58859;55.132;-1.586;2023-10-31T00:41:58;99585.16;;;17.24;100.00
71165;BME280;58859;55.132;-1.586;2023-10-31T00:44:24;99585.03;;;17.55;100.00
71165;BME280;58859;55.132;-1.586;2023-10-31T00:46:49;99582.22;;;17.14;100.00
71165;BME280;58859;55.132;-1.586;2023-10-31T00:49:14;99586.19;;;17.77;100.00
71165;BME280;58859;55.132;-1.586;2023-10-31T00:51:40;99582.56;;;18.38;100.00
71165;BME280;58859;55.132;-1.586;2023-10-31T00:54:05;99586.09;;;18.97;100.00
71165;BME280;58859;55.132;-1.586;2023-10-31T00:56:31;99587.13;;;18.43;100.00
71165;BME280;58859;55.132;-1.586;2023-10-31T00:58:56;99589.56;;;19.09;100.00
71165;BME280;58859;55.132;-1.586;2023-10-31T01:01:21;99588.75;;;18.44;100.00
71165;BME280;58859;55.132;-1.586;2023-10-31T01:03:47;99587.72;;;18.45;100.00
71165;BME280;58859;55.132;-1.586;2023-10-31T01:06:12;99586.19;;;18.55;100.00
71165;BME280;58859;55.132;-1.586;2023-10-31T01:08:38;99592.09;;;19.04;100.00
71165;BME280;58859;55.132;-1.586;2023-10-31T01:11:03;99595.38;;;18.05;100.00
71165;BME280;58859;55.132;-1.586;2023-10-31T01:13:28;99585.56;;;18.42;100.00
71165;BME280;58859;55.132;-1.586;2023-10-31T01:15:54;99593.75;;;19.33;100.00
71165;BME280;58859;55.132;-1.586;2023-10-31T01:18:20;99591.25;;;19.38;100.00
71165;BME280;58859;55.132;-1.586;2023-10-31T01:20:45;99581.75;;;19.48;100.00
71165;BME280;58859;55.132;-1.586;2023-10-31T01:23:10;99587.78;;;19.72;100.00
71165;BME280;58859;55.132;-1.586;2023-10-31T01:25:36;99590.63;;;19.82;100.00
71165;BME280;58859;55.132;-1.586;2023-10-31T01:28:01;99587.34;;;18.82;100.00
71165;BME280;58859;55.132;-1.586;2023-10-31T01:30:27;99587.03;;;19.48;100.00
71165;BME280;58859;55.132;-1.586;2023-10-31T01:32:52;99583.69;;;18.72;100.00
71165;BME280;58859;55.132;-1.586;2023-10-31T01:35:17;99587.16;;;18.84;100.00
71165;BME280;58859;55.132;-1.586;2023-10-31T01:37:43;99587.59;;;19.16;100.00
71165;BME280;58859;55.132;-1.586;2023-10-31T01:40:12;99593.66;;;19.28;100.00
71165;BME280;58859;55.132;-1.586;2023-10-31T01:42:37;99588.06;;;18.89;100.00
71165;BME280;58859;55.132;-1.586;2023-10-31T01:45:03;99588.38;;;18.93;100.00
71165;BME280;58859;55.132;-1.586;2023-10-31T01:47:28;99597.38;;;18.21;100.00
71165;BME280;58859;55.132;-1.586;2023-10-31T01:49:54;99598.06;;;18.28;100.00
71165;BME280;58859;55.132;-1.586;2023-10-31T01:52:21;99600.06;;;18.32;100.00
71165;BME280;58859;55.132;-1.586;2023-10-31T01:54:46;99600.81;;;17.73;100.00
71165;BME280;58859;55.132;-1.586;2023-10-31T01:57:12;99600.41;;;18.06;100.00
71165;BME280;58859;55.132;-1.586;2023-10-31T01:59:39;99599.03;;;18.04;100.00
71165;BME280;58859;55.132;-1.586;2023-10-31T02:02:05;99592.97;;;17.49;100.00
71165;BME280;58859;55.132;-1.586;2023-10-31T02:04:30;99599.91;;;17.98;100.00
71165;BME280;58859;55.132;-1.586;2023-10-31T02:06:55;99600.84;;;18.63;100.00
71165;BME280;58859;55.132;-1.586;2023-10-31T02:09:21;99602.25;;;18.35;100.00
71165;BME280;58859;55.132;-1.586;2023-10-31T02:11:51;99600.66;;;18.46;100.00
71165;BME280;58859;55.132;-1.586;2023-10-31T02:14:18;99600.53;;;18.41;100.00
71165;BME280;58859;55.132;-1.586;2023-10-31T02:16:43;99608.19;;;17.83;100.00
71165;BME280;58859;55.132;-1.586;2023-10-31T02:19:10;99611.63;;;18.43;100.00
71165;BME280;58859;55.132;-1.586;2023-10-31T02:21:39;99607.97;;;18.85;100.00
71165;BME280;58859;55.132;-1.586;2023-10-31T02:24:05;99610.97;;;18.89;100.00
71165;BME280;58859;55.132;-1.586;2023-10-31T02:26:32;99607.72;;;18.04;100.00
71165;BME280;58859;55.132;-1.586;2023-10-31T02:28:58;99599.69;;;18.29;100.00
71165;BME280;58859;55.132;-1.586;2023-10-31T02:31:24;99602.94;;;18.84;100.00
71165;BME280;58859;55.132;-1.586;2023-10-31T02:33:50;99602.66;;;18.62;100.00
71165;BME280;58859;55.132;-1.586;2023-10-31T02:36:16;99610.41;;;18.99;100.00
71165;BME280;58859;55.132;-1.586;2023-10-31T02:38:41;99606.16;;;18.98;100.00
71165;BME280;58859;55.132;-1.586;2023-10-31T02:41:06;99605.50;;;18.49;100.00
71165;BME280;58859;55.132;-1.586;2023-10-31T02:43:32;99605.19;;;18.39;100.00
71165;BME280;58859;55.132;-1.586;2023-10-31T02:45:58;99605.16;;;17.98;100.00
71165;BME280;58859;55.132;-1.586;2023-10-31T02:48:23;99605.84;;;18.23;100.00
71165;BME280;58859;55.132;-1.586;2023-10-31T02:50:50;99607.34;;;18.19;100.00
71165;BME280;58859;55.132;-1.586;2023-10-31T02:53:17;99606.34;;;17.84;100.00
71165;BME280;58859;55.132;-1.586;2023-10-31T02:55:43;99609.72;;;18.20;100.00
71165;BME280;58859;55.132;-1.586;2023-10-31T02:58:08;99613.47;;;18.72;100.00
71165;BME280;58859;55.132;-1.586;2023-10-31T03:00:33;99617.97;;;18.95;100.00
71165;BME280;58859;55.132;-1.586;2023-10-31T03:02:59;99616.91;;;18.84;100.00
71165;BME280;58859;55.132;-1.586;2023-10-31T03:05:25;99609.13;;;18.78;100.00
71165;BME280;58859;55.132;-1.586;2023-10-31T03:07:50;99616.28;;;19.24;100.00
71165;BME280;58859;55.132;-1.586;2023-10-31T03:10:16;99616.59;;;18.92;100.00
71165;BME280;58859;55.132;-1.586;2023-10-31T03:12:41;99618.56;;;18.26;100.00
71165;BME280;58859;55.132;-1.586;2023-10-31T03:15:07;99615.66;;;19.33;100.00
71165;BME280;58859;55.132;-1.586;2023-10-31T03:17:33;99617.47;;;18.75;100.00
71165;BME280;58859;55.132;-1.586;2023-10-31T03:19:58;99624.75;;;19.26;100.00
71165;BME280;58859;55.132;-1.586;2023-10-31T03:22:23;99625.13;;;17.69;100.00
71165;BME280;58859;55.132;-1.586;2023-10-31T03:24:49;99626.13;;;17.07;100.00
71165;BME280;58859;55.132;-1.586;2023-10-31T03:27:14;99622.38;;;18.30;100.00
71165;BME280;58859;55.132;-1.586;2023-10-31T03:29:39;99624.47;;;17.12;100.00
71165;BME280;58859;55.132;-1.586;2023-10-31T03:32:05;99623.63;;;17.61;100.00
71165;BME280;58859;55.132;-1.586;2023-10-31T03:34:30;99623.72;;;16.81;100.00
71165;BME280;58859;55.132;-1.586;2023-10-31T03:36:56;99619.31;;;17.24;100.00
71165;BME280;58859;55.132;-1.586;2023-10-31T03:39:21;99622.06;;;17.11;100.00
71165;BME280;58859;55.132;-1.586;2023-10-31T03:41:47;99619.84;;;17.51;100.00
71165;BME280;58859;55.132;-1.586;2023-10-31T03:44:12;99624.63;;;16.93;100.00
71165;BME280;58859;55.132;-1.586;2023-10-31T03:46:37;99625.03;;;17.94;100.00
71165;BME280;58859;55.132;-1.586;2023-10-31T03:49:03;99630.91;;;17.35;100.00
71165;BME280;58859;55.132;-1.586;2023-10-31T03:51:28;99621.00;;;18.09;100.00
71165;BME280;58859;55.132;-1.586;2023-10-31T03:53:53;99628.34;;;17.71;100.00
71165;BME280;58859;55.132;-1.586;2023-10-31T03:56:19;99628.13;;;17.54;100.00
71165;BME280;58859;55.132;-1.586;2023-10-31T03:58:44;99629.31;;;16.91;100.00
71165;BME280;58859;55.132;-1.586;2023-10-31T04:01:10;99639.81;;;17.95;100.00
71165;BME280;58859;55.132;-1.586;2023-10-31T04:03:35;99634.34;;;18.26;100.00
71165;BME280;58859;55.132;-1.586;2023-10-31T04:06:00;99639.97;;;17.63;100.00
71165;BME280;58859;55.132;-1.586;2023-10-31T04:08:26;99649.78;;;17.50;100.00
71165;BME280;58859;55.132;-1.586;2023-10-31T04:10:51;99646.50;;;18.98;100.00
71165;BME280;58859;55.132;-1.586;2023-10-31T04:13:16;99652.59;;;17.91;100.00
71165;BME280;58859;55.132;-1.586;2023-10-31T04:15:42;99649.03;;;17.86;100.00
71165;BME280;58859;55.132;-1.586;2023-10-31T04:18:07;99649.16;;;18.09;100.00
71165;BME280;58859;55.132;-1.586;2023-10-31T04:20:32;99650.47;;;18.00;100.00
71165;BME280;58859;55.132;-1.586;2023-10-31T04:22:58;99655.97;;;17.98;100.00
71165;BME280;58859;55.132;-1.586;2023-10-31T04:25:24;99661.28;;;17.55;100.00
71165;BME280;58859;55.132;-1.586;2023-10-31T04:27:49;99654.22;;;18.10;100.00
71165;BME280;58859;55.132;-1.586;2023-10-31T04:30:15;99660.94;;;17.27;100.00
71165;BME280;58859;55.132;-1.586;2023-10-31T04:32:40;99646.88;;;17.15;100.00
71165;BME280;58859;55.132;-1.586;2023-10-31T04:35:06;99653.88;;;17.46;100.00
71165;BME280;58859;55.132;-1.586;2023-10-31T04:37:31;99660.97;;;18.36;100.00
71165;BME280;58859;55.132;-1.586;2023-10-31T04:39:57;99660.44;;;17.12;100.00
71165;BME280;58859;55.132;-1.586;2023-10-31T04:42:22;99664.09;;;17.36;100.00
71165;BME280;58859;55.132;-1.586;2023-10-31T04:44:48;99661.22;;;17.37;100.00
71165;BME280;58859;55.132;-1.586;2023-10-31T04:47:13;99656.19;;;16.86;100.00
71165;BME280;58859;55.132;-1.586;2023-10-31T04:49:39;99658.94;;;17.65;100.00
71165;BME280;58859;55.132;-1.586;2023-10-31T04:52:04;99658.28;;;18.24;100.00
71165;BME280;58859;55.132;-1.586;2023-10-31T04:54:30;99653.22;;;18.23;100.00
71165;BME280;58859;55.132;-1.586;2023-10-31T04:56:55;99657.47;;;18.83;100.00
71165;BME280;58859;55.132;-1.586;2023-10-31T04:59:21;99656.75;;;18.76;100.00
71165;BME280;58859;55.132;-1.586;2023-10-31T05:01:50;99654.91;;;17.20;100.00
71165;BME280;58859;55.132;-1.586;2023-10-31T05:04:16;99651.97;;;17.96;100.00
71165;BME280;58859;55.132;-1.586;2023-10-31T05:06:42;99655.44;;;17.71;100.00
71165;BME280;58859;55.132;-1.586;2023-10-31T05:09:07;99659.47;;;17.56;100.00
71165;BME280;58859;55.132;-1.586;2023-10-31T05:11:33;99654.91;;;16.95;100.00
71165;BME280;58859;55.132;-1.586;2023-10-31T05:13:58;99654.66;;;17.28;100.00
71165;BME280;58859;55.132;-1.586;2023-10-31T05:16:24;99651.41;;;17.08;100.00
71165;BME280;58859;55.132;-1.586;2023-10-31T05:18:49;99658.59;;;17.80;100.00
71165;BME280;58859;55.132;-1.586;2023-10-31T05:21:19;99659.97;;;18.19;100.00
71165;BME280;58859;55.132;-1.586;2023-10-31T05:23:46;99658.03;;;18.85;100.00
71165;BME280;58859;55.132;-1.586;2023-10-31T05:26:11;99659.06;;;17.52;100.00
71165;BME280;58859;55.132;-1.586;2023-10-31T05:28:36;99664.22;;;17.84;100.00
71165;BME280;58859;55.132;-1.586;2023-10-31T05:31:02;99667.53;;;18.75;100.00
71165;BME280;58859;55.132;-1.586;2023-10-31T05:33:28;99664.91;;;18.75;100.00
71165;BME280;58859;55.132;-1.586;2023-10-31T05:35:54;99670.00;;;16.75;100.00
71165;BME280;58859;55.132;-1.586;2023-10-31T05:38:19;99666.91;;;17.34;100.00
71165;BME280;58859;55.132;-1.586;2023-10-31T05:40:45;99672.84;;;18.09;100.00
71165;BME280;58859;55.132;-1.586;2023-10-31T05:43:10;99674.81;;;17.77;100.00
71165;BME280;58859;55.132;-1.586;2023-10-31T05:45:35;99678.81;;;18.52;100.00
71165;BME280;58859;55.132;-1.586;2023-10-31T05:48:01;99680.88;;;18.14;100.00
71165;BME280;58859;55.132;-1.586;2023-10-31T05:50:26;99687.81;;;19.39;100.00
71165;BME280;58859;55.132;-1.586;2023-10-31T05:52:51;99684.75;;;18.89;100.00
71165;BME280;58859;55.132;-1.586;2023-10-31T05:55:17;99685.31;;;18.91;100.00
71165;BME280;58859;55.132;-1.586;2023-10-31T05:57:42;99694.03;;;17.77;100.00
71165;BME280;58859;55.132;-1.586;2023-10-31T06:00:08;99681.59;;;18.69;100.00
71165;BME280;58859;55.132;-1.586;2023-10-31T06:02:34;99687.63;;;17.73;100.00
71165;BME280;58859;55.132;-1.586;2023-10-31T06:04:59;99693.38;;;17.64;100.00
71165;BME280;58859;55.132;-1.586;2023-10-31T06:07:25;99692.06;;;17.73;100.00
71165;BME280;58859;55.132;-1.586;2023-10-31T06:09:50;99694.75;;;18.21;100.00
71165;BME280;58859;55.132;-1.586;2023-10-31T06:12:16;99697.03;;;18.35;100.00
71165;BME280;58859;55.132;-1.586;2023-10-31T06:14:41;99700.00;;;18.57;100.00
71165;BME280;58859;55.132;-1.586;2023-10-31T06:17:06;99701.41;;;18.71;100.00
71165;BME280;58859;55.132;-1.586;2023-10-31T06:19:36;99704.03;;;18.42;100.00
71165;BME280;58859;55.132;-1.586;2023-10-31T06:22:01;99701.22;;;16.90;100.00
71165;BME280;58859;55.132;-1.586;2023-10-31T06:24:27;99700.47;;;18.66;100.00
71165;BME280;58859;55.132;-1.586;2023-10-31T06:26:52;99703.09;;;19.07;100.00
71165;BME280;58859;55.132;-1.586;2023-10-31T06:29:17;99703.59;;;18.74;100.00
71165;BME280;58859;55.132;-1.586;2023-10-31T06:31:43;99707.59;;;19.07;100.00
71165;BME280;58859;55.132;-1.586;2023-10-31T06:34:08;99706.47;;;19.26;100.00
71165;BME280;58859;55.132;-1.586;2023-10-31T06:36:34;99717.34;;;18.28;100.00
71165;BME280;58859;55.132;-1.586;2023-10-31T06:38:59;99707.94;;;18.69;100.00
71165;BME280;58859;55.132;-1.586;2023-10-31T06:41:24;99718.59;;;18.44;100.00
71165;BME280;58859;55.132;-1.586;2023-10-31T06:43:50;99718.63;;;18.08;100.00
71165;BME280;58859;55.132;-1.586;2023-10-31T06:46:15;99714.34;;;18.25;100.00
71165;BME280;58859;55.132;-1.586;2023-10-31T06:48:41;99715.00;;;18.02;100.00
71165;BME280;58859;55.132;-1.586;2023-10-31T06:51:07;99713.09;;;19.17;100.00
71165;BME280;58859;55.132;-1.586;2023-10-31T06:53:32;99716.81;;;18.86;100.00
71165;BME280;58859;55.132;-1.586;2023-10-31T06:55:57;99720.38;;;17.96;100.00
71165;BME280;58859;55.132;-1.586;2023-10-31T06:58:23;99724.13;;;18.54;100.00
71165;BME280;58859;55.132;-1.586;2023-10-31T07:00:48;99707.31;;;17.15;100.00
71165;BME280;58859;55.132;-1.586;2023-10-31T07:03:14;99720.16;;;18.45;100.00
71165;BME280;58859;55.132;-1.586;2023-10-31T07:05:41;99719.31;;;18.51;100.00
71165;BME280;58859;55.132;-1.586;2023-10-31T07:08:07;99719.47;;;18.38;100.00
71165;BME280;58859;55.132;-1.586;2023-10-31T07:10:33;99717.66;;;17.84;100.00
71165;BME280;58859;55.132;-1.586;2023-10-31T07:12:59;99720.31;;;19.10;100.00
71165;BME280;58859;55.132;-1.586;2023-10-31T07:15:25;99724.72;;;17.84;100.00
71165;BME280;58859;55.132;-1.586;2023-10-31T07:17:51;99725.00;;;18.66;100.00
71165;BME280;58859;55.132;-1.586;2023-10-31T07:20:16;99732.19;;;18.23;100.00
71165;BME280;58859;55.132;-1.586;2023-10-31T07:22:42;99738.34;;;18.83;100.00
71165;BME280;58859;55.132;-1.586;2023-10-31T07:25:08;99741.91;;;18.22;100.00
71165;BME280;58859;55.132;-1.586;2023-10-31T07:27:33;99741.94;;;19.41;100.00
71165;BME280;58859;55.132;-1.586;2023-10-31T07:29:59;99738.78;;;18.14;100.00
71165;BME280;58859;55.132;-1.586;2023-10-31T07:32:24;99742.94;;;19.29;100.00
71165;BME280;58859;55.132;-1.586;2023-10-31T07:34:51;99745.50;;;18.28;100.00
71165;BME280;58859;55.132;-1.586;2023-10-31T07:37:16;99747.66;;;18.97;100.00
71165;BME280;58859;55.132;-1.586;2023-10-31T07:39:41;99747.66;;;18.97;100.00
71165;BME280;58859;55.132;-1.586;2023-10-31T07:42:07;99742.03;;;19.35;100.00
71165;BME280;58859;55.132;-1.586;2023-10-31T07:44:33;99738.88;;;18.07;100.00
71165;BME280;58859;55.132;-1.586;2023-10-31T07:46:58;99739.09;;;17.63;100.00
71165;BME280;58859;55.132;-1.586;2023-10-31T07:49:24;99736.22;;;17.89;100.00
71165;BME280;58859;55.132;-1.586;2023-10-31T07:51:49;99734.59;;;17.45;100.00
71165;BME280;58859;55.132;-1.586;2023-10-31T07:54:15;99734.00;;;17.68;100.00
71165;BME280;58859;55.132;-1.586;2023-10-31T07:56:41;99741.38;;;17.59;100.00
71165;BME280;58859;55.132;-1.586;2023-10-31T07:59:07;99744.97;;;18.19;100.00
71165;BME280;58859;55.132;-1.586;2023-10-31T08:01:34;99746.09;;;17.44;100.00
71165;BME280;58859;55.132;-1.586;2023-10-31T08:03:59;99745.53;;;17.85;100.00
71165;BME280;58859;55.132;-1.586;2023-10-31T08:06:25;99746.25;;;18.53;100.00
71165;BME280;58859;55.132;-1.586;2023-10-31T08:08:50;99753.81;;;17.89;100.00
71165;BME280;58859;55.132;-1.586;2023-10-31T08:11:16;99746.25;;;17.49;100.00
71165;BME280;58859;55.132;-1.586;2023-10-31T08:13:41;99753.28;;;17.31;100.00
71165;BME280;58859;55.132;-1.586;2023-10-31T08:16:07;99747.06;;;17.56;100.00
71165;BME280;58859;55.132;-1.586;2023-10-31T08:18:34;99743.75;;;18.58;100.00
71165;BME280;58859;55.132;-1.586;2023-10-31T08:20:59;99759.66;;;17.72;100.00
71165;BME280;58859;55.132;-1.586;2023-10-31T08:23:25;99761.44;;;17.54;100.00
71165;BME280;58859;55.132;-1.586;2023-10-31T08:25:51;99762.31;;;18.45;100.00
71165;BME280;58859;55.132;-1.586;2023-10-31T08:28:16;99769.13;;;17.98;100.00
71165;BME280;58859;55.132;-1.586;2023-10-31T08:30:42;99775.03;;;18.12;100.00
71165;BME280;58859;55.132;-1.586;2023-10-31T08:33:07;99778.53;;;17.88;100.00
71165;BME280;58859;55.132;-1.586;2023-10-31T08:35:33;99772.63;;;18.10;100.00
71165;BME280;58859;55.132;-1.586;2023-10-31T08:37:58;99788.09;;;18.00;100.00
71165;BME280;58859;55.132;-1.586;2023-10-31T08:40:24;99786.16;;;17.40;100.00
71165;BME280;58859;55.132;-1.586;2023-10-31T08:42:49;99781.44;;;17.23;100.00
71165;BME280;58859;55.132;-1.586;2023-10-31T08:45:14;99784.06;;;17.55;100.00
71165;BME280;58859;55.132;-1.586;2023-10-31T08:47:40;99781.03;;;18.01;100.00
71165;BME280;58859;55.132;-1.586;2023-10-31T08:50:06;99782.59;;;17.84;100.00
71165;BME280;58859;55.132;-1.586;2023-10-31T08:52:34;99789.16;;;18.17;100.00
71165;BME280;58859;55.132;-1.586;2023-10-31T08:54:59;99795.59;;;18.39;100.00
71165;BME280;58859;55.132;-1.586;2023-10-31T08:57:25;99793.19;;;18.56;100.00
71165;BME280;58859;55.132;-1.586;2023-10-31T08:59:50;99799.31;;;18.68;100.00
71165;BME280;58859;55.132;-1.586;2023-10-31T09:02:15;99801.47;;;17.56;100.00
71165;BME280;58859;55.132;-1.586;2023-10-31T09:04:41;99799.69;;;18.17;100.00
71165;BME280;58859;55.132;-1.586;2023-10-31T09:07:07;99801.59;;;17.86;100.00
71165;BME280;58859;55.132;-1.586;2023-10-31T09:09:32;99796.47;;;18.15;100.00
71165;BME280;58859;55.132;-1.586;2023-10-31T09:11:57;99798.72;;;18.12;100.00
71165;BME280;58859;55.132;-1.586;2023-10-31T09:14:23;99802.06;;;17.20;100.00
71165;BME280;58859;55.132;-1.586;2023-10-31T09:16:48;99796.34;;;17.61;100.00
71165;BME280;58859;55.132;-1.586;2023-10-31T09:19:14;99808.91;;;17.28;100.00
71165;BME280;58859;55.132;-1.586;2023-10-31T09:21:39;99804.22;;;17.86;100.00
71165;BME280;58859;55.132;-1.586;2023-10-31T09:24:05;99805.75;;;17.44;100.00
71165;BME280;58859;55.132;-1.586;2023-10-31T09:26:31;99805.34;;;17.15;100.00
71165;BME280;58859;55.132;-1.586;2023-10-31T09:28:56;99811.97;;;17.24;100.00
71165;BME280;58859;55.132;-1.586;2023-10-31T09:31:22;99809.34;;;17.56;100.00
71165;BME280;58859;55.132;-1.586;2023-10-31T09:33:47;99807.09;;;17.84;100.00
71165;BME280;58859;55.132;-1.586;2023-10-31T09:36:13;99818.31;;;18.59;100.00
71165;BME280;58859;55.132;-1.586;2023-10-31T09:38:39;99818.91;;;18.18;100.00
71165;BME280;58859;55.132;-1.586;2023-10-31T09:41:05;99813.03;;;18.59;100.00
71165;BME280;58859;55.132;-1.586;2023-10-31T09:43:31;99824.59;;;18.15;100.00
71165;BME280;58859;55.132;-1.586;2023-10-31T09:45:57;99824.56;;;17.97;100.00
71165;BME280;58859;55.132;-1.586;2023-10-31T09:48:23;99820.41;;;17.33;100.00
71165;BME280;58859;55.132;-1.586;2023-10-31T09:50:49;99821.91;;;18.39;100.00
71165;BME280;58859;55.132;-1.586;2023-10-31T09:53:15;99826.09;;;18.29;100.00
71165;BME280;58859;55.132;-1.586;2023-10-31T09:55:42;99825.91;;;18.06;100.00
71165;BME280;58859;55.132;-1.586;2023-10-31T09:58:08;99834.13;;;18.59;100.00
71165;BME280;58859;55.132;-1.586;2023-10-31T10:00:33;99829.22;;;17.76;100.00
71165;BME280;58859;55.132;-1.586;2023-10-31T10:03:02;99838.75;;;17.71;100.00
71165;BME280;58859;55.132;-1.586;2023-10-31T10:05:30;99828.44;;;17.94;100.00
71165;BME280;58859;55.132;-1.586;2023-10-31T10:07:56;99832.03;;;18.00;100.00
71165;BME280;58859;55.132;-1.586;2023-10-31T10:10:21;99840.47;;;18.69;100.00
71165;BME280;58859;55.132;-1.586;2023-10-31T10:12:47;99832.75;;;18.86;100.00
71165;BME280;58859;55.132;-1.586;2023-10-31T10:15:12;99829.19;;;18.62;100.00
71165;BME280;58859;55.132;-1.586;2023-10-31T10:17:38;99819.81;;;17.87;100.00
71165;BME280;58859;55.132;-1.586;2023-10-31T10:20:11;99838.81;;;18.32;100.00
71165;BME280;58859;55.132;-1.586;2023-10-31T10:22:40;99843.06;;;18.87;100.00
71165;BME280;58859;55.132;-1.586;2023-10-31T10:25:15;99841.69;;;18.49;100.00
71165;BME280;58859;55.132;-1.586;2023-10-31T10:27:44;99841.47;;;19.16;100.00
71165;BME280;58859;55.132;-1.586;2023-10-31T10:30:11;99843.56;;;17.43;100.00
71165;BME280;58859;55.132;-1.586;2023-10-31T10:32:37;99839.38;;;19.07;100.00
71165;BME280;58859;55.132;-1.586;2023-10-31T10:35:03;99842.72;;;17.17;100.00
71165;BME280;58859;55.132;-1.586;2023-10-31T10:37:29;99839.22;;;18.11;100.00
71165;BME280;58859;55.132;-1.586;2023-10-31T10:39:56;99841.72;;;18.97;100.00
71165;BME280;58859;55.132;-1.586;2023-10-31T10:42:44;99836.44;;;18.67;100.00
71165;BME280;58859;55.132;-1.586;2023-10-31T10:45:12;99839.41;;;18.34;100.00
71165;BME280;58859;55.132;-1.586;2023-10-31T10:47:39;99845.13;;;18.06;100.00
71165;BME280;58859;55.132;-1.586;2023-10-31T10:50:05;99846.03;;;18.18;100.00
71165;BME280;58859;55.132;-1.586;2023-10-31T10:52:56;99850.25;;;18.19;100.00
71165;BME280;58859;55.132;-1.586;2023-10-31T10:55:26;99852.44;;;18.47;100.00
71165;BME280;58859;55.132;-1.586;2023-10-31T10:59:03;99851.56;;;18.71;100.00
71165;BME280;58859;55.132;-1.586;2023-10-31T11:01:08;99856.47;;;17.19;100.00
71165;BME280;58859;55.132;-1.586;2023-10-31T11:03:34;99846.38;;;18.04;100.00
71165;BME280;58859;55.132;-1.586;2023-10-31T11:06:00;99847.00;;;18.42;100.00
71165;BME280;58859;55.132;-1.586;2023-10-31T11:08:27;99845.31;;;17.87;100.00
71165;BME280;58859;55.132;-1.586;2023-10-31T11:10:53;99840.88;;;17.24;100.00
71165;BME280;58859;55.132;-1.586;2023-10-31T11:13:22;99838.69;;;18.02;100.00
71165;BME280;58859;55.132;-1.586;2023-10-31T11:15:51;99838.25;;;18.05;100.00
71165;BME280;58859;55.132;-1.586;2023-10-31T11:18:19;99830.53;;;18.10;100.00
71165;BME280;58859;55.132;-1.586;2023-10-31T11:20:45;99848.28;;;17.34;100.00
71165;BME280;58859;55.132;-1.586;2023-10-31T11:23:11;99838.31;;;17.74;100.00
71165;BME280;58859;55.132;-1.586;2023-10-31T11:25:42;99824.91;;;18.07;100.00
71165;BME280;58859;55.132;-1.586;2023-10-31T11:28:15;99831.44;;;17.98;100.00
71165;BME280;58859;55.132;-1.586;2023-10-31T11:30:41;99830.53;;;17.86;100.00
71165;BME280;58859;55.132;-1.586;2023-10-31T11:33:12;99828.81;;;17.98;100.00
71165;BME280;58859;55.132;-1.586;2023-10-31T11:35:39;99836.34;;;17.38;100.00
71165;BME280;58859;55.132;-1.586;2023-10-31T11:38:09;99824.38;;;17.98;100.00
71165;BME280;58859;55.132;-1.586;2023-10-31T11:40:38;99825.00;;;18.18;100.00
71165;BME280;58859;55.132;-1.586;2023-10-31T11:43:22;99829.00;;;18.21;100.00
71165;BME280;58859;55.132;-1.586;2023-10-31T11:45:48;99829.38;;;18.43;100.00
71165;BME280;58859;55.132;-1.586;2023-10-31T11:48:14;99829.31;;;17.88;100.00
71165;BME280;58859;55.132;-1.586;2023-10-31T11:50:40;99824.19;;;17.68;100.00
71165;BME280;58859;55.132;-1.586;2023-10-31T11:53:08;99822.97;;;17.71;100.00
71165;BME280;58859;55.132;-1.586;2023-10-31T11:55:36;99816.53;;;17.92;100.00
71165;BME280;58859;55.132;-1.586;2023-10-31T11:58:23;99826.63;;;17.70;100.00
71165;BME280;58859;55.132;-1.586;2023-10-31T12:01:01;99815.50;;;17.93;100.00
71165;BME280;58859;55.132;-1.586;2023-10-31T12:03:27;99826.47;;;18.32;100.00
71165;BME280;58859;55.132;-1.586;2023-10-31T12:05:57;99826.53;;;18.80;100.00
71165;BME280;58859;55.132;-1.586;2023-10-31T12:08:41;99820.84;;;18.65;100.00
71165;BME280;58859;55.132;-1.586;2023-10-31T12:11:12;99816.31;;;17.93;100.00
71165;BME280;58859;55.132;-1.586;2023-10-31T12:13:39;99823.41;;;17.93;100.00
71165;BME280;58859;55.132;-1.586;2023-10-31T12:16:06;99828.88;;;17.66;100.00
71165;BME280;58859;55.132;-1.586;2023-10-31T12:18:36;99824.13;;;18.00;100.00
71165;BME280;58859;55.132;-1.586;2023-10-31T12:21:02;99814.50;;;18.12;100.00
71165;BME280;58859;55.132;-1.586;2023-10-31T12:23:28;99816.03;;;18.01;100.00
71165;BME280;58859;55.132;-1.586;2023-10-31T12:25:54;99819.56;;;17.39;100.00
71165;BME280;58859;55.132;-1.586;2023-10-31T12:28:21;99814.72;;;17.36;100.00
71165;BME280;58859;55.132;-1.586;2023-10-31T12:30:48;99815.56;;;17.86;100.00
71165;BME280;58859;55.132;-1.586;2023-10-31T12:33:14;99824.09;;;18.06;100.00
71165;BME280;58859;55.132;-1.586;2023-10-31T12:35:39;99822.75;;;17.97;100.00